createdAt,value
2019-03-24T00:00:50.695Z,29.50
2019-03-24T00:03:19.661Z,29.46
2019-03-24T00:05:47.900Z,29.60
2019-03-24T00:08:18.929Z,29.59
2019-03-24T00:10:47.945Z,29.66
2019-03-24T00:13:16.754Z,29.67
2019-03-24T00:15:46.109Z,29.62
2019-03-24T00:18:14.901Z,29.72
2019-03-24T00:20:43.568Z,29.68
2019-03-24T00:23:12.685Z,29.74
2019-03-24T00:25:41.041Z,29.71
2019-03-24T00:28:10.004Z,29.63
2019-03-24T00:30:38.703Z,29.63
2019-03-24T00:33:07.190Z,29.62
2019-03-24T00:35:35.590Z,29.62
2019-03-24T00:38:04.158Z,29.57
2019-03-24T00:40:33.286Z,29.66
2019-03-24T00:43:01.816Z,29.75
2019-03-24T00:45:36.820Z,29.73
2019-03-24T00:48:02.980Z,29.84
2019-03-24T00:50:31.508Z,29.81
2019-03-24T00:53:00.296Z,29.74
2019-03-24T00:55:28.986Z,29.81
2019-03-24T00:57:57.671Z,29.85
2019-03-24T01:00:42.966Z,29.82
2019-03-24T01:03:11.318Z,29.83
2019-03-24T01:05:40.067Z,29.74
2019-03-24T01:08:08.444Z,29.77
2019-03-24T01:10:36.968Z,29.63
2019-03-24T01:13:05.720Z,29.81
2019-03-24T01:15:47.091Z,29.79
2019-03-24T01:18:06.988Z,29.85
2019-03-24T01:20:37.817Z,29.90
2019-03-24T01:23:06.108Z,29.90
2019-03-24T01:25:34.809Z,29.88
2019-03-24T01:28:03.397Z,29.86
2019-03-24T01:30:32.237Z,29.94
2019-03-24T01:33:01.023Z,29.92
2019-03-24T01:35:29.534Z,29.91
2019-03-24T01:37:58.101Z,29.91
2019-03-24T01:40:26.615Z,29.82
2019-03-24T01:42:55.180Z,29.77
2019-03-24T01:45:23.802Z,29.77
2019-03-24T01:47:52.014Z,29.72
2019-03-24T01:50:20.413Z,29.64
2019-03-24T01:52:48.576Z,29.74
2019-03-24T01:55:16.927Z,29.78
2019-03-24T01:57:45.331Z,29.91
2019-03-24T02:00:13.595Z,29.93
2019-03-24T02:02:42.316Z,29.93
2019-03-24T02:05:11.251Z,29.91
2019-03-24T02:07:41.048Z,29.95
2019-03-24T02:10:09.636Z,29.96
2019-03-24T02:12:38.369Z,29.94
2019-03-24T02:15:06.894Z,29.98
2019-03-24T02:17:35.275Z,29.94
2019-03-24T02:20:04.254Z,29.91
2019-03-24T02:22:33.589Z,29.89
2019-03-24T02:25:21.099Z,29.79
2019-03-24T02:27:49.829Z,29.77
2019-03-24T02:30:18.673Z,29.94
2019-03-24T02:32:47.214Z,29.96
2019-03-24T02:35:15.822Z,29.95
2019-03-24T02:37:45.336Z,29.99
2019-03-24T02:40:14.539Z,29.97
2019-03-24T02:42:43.210Z,30.01
2019-03-24T02:45:11.945Z,29.98
2019-03-24T02:47:40.925Z,29.95
2019-03-24T02:50:09.456Z,29.99
2019-03-24T02:52:38.245Z,30.04
2019-03-24T02:55:07.382Z,29.96
2019-03-24T02:57:37.246Z,29.89
2019-03-24T03:00:06.771Z,29.72
2019-03-24T03:02:35.568Z,29.82
2019-03-24T03:05:04.920Z,29.74
2019-03-24T03:07:34.594Z,29.82
2019-03-24T03:10:03.725Z,29.99
2019-03-24T03:12:32.739Z,30.06
2019-03-24T03:15:02.313Z,30.03
2019-03-24T03:17:30.829Z,29.94
2019-03-24T03:20:01.050Z,29.96
2019-03-24T03:22:30.261Z,29.96
2019-03-24T03:25:01.207Z,29.97
2019-03-24T03:27:29.954Z,29.98
2019-03-24T03:29:58.456Z,29.96
2019-03-24T03:32:27.160Z,29.88
2019-03-24T03:34:55.868Z,29.84
2019-03-24T03:37:24.452Z,30.10
2019-03-24T03:39:57.382Z,30.05
2019-03-24T03:42:23.723Z,30.05
2019-03-24T03:44:52.501Z,30.09
2019-03-24T03:47:21.203Z,30.28
2019-03-24T03:49:49.853Z,30.34
2019-03-24T03:52:18.570Z,30.37
2019-03-24T03:54:47.109Z,30.30
2019-03-24T03:57:15.688Z,30.34
2019-03-24T03:59:44.568Z,30.31
2019-03-24T04:02:13.172Z,30.30
2019-03-24T04:04:41.754Z,30.31
2019-03-24T04:07:10.264Z,30.33
2019-03-24T04:09:40.290Z,30.32
2019-03-24T04:12:08.788Z,30.28
2019-03-24T04:14:37.324Z,30.31
2019-03-24T04:17:07.896Z,30.27
2019-03-24T04:19:36.707Z,30.20
2019-03-24T04:22:05.130Z,30.30
2019-03-24T04:24:34.966Z,30.34
2019-03-24T04:27:03.860Z,30.41
2019-03-24T04:29:32.589Z,30.47
2019-03-24T04:32:01.135Z,30.40
2019-03-24T04:34:32.738Z,30.42
2019-03-24T04:37:01.413Z,30.44
2019-03-24T04:39:31.829Z,30.42
2019-03-24T04:42:00.648Z,30.42
2019-03-24T04:44:30.345Z,30.47
2019-03-24T04:46:59.561Z,30.45
2019-03-24T04:49:28.386Z,30.38
2019-03-24T04:51:57.237Z,30.29
2019-03-24T04:54:25.863Z,30.15
2019-03-24T04:56:54.373Z,30.26
2019-03-24T04:59:23.467Z,30.37
2019-03-24T05:01:52.363Z,30.44
2019-03-24T05:04:21.225Z,30.92
2019-03-24T05:06:51.120Z,30.78
2019-03-24T05:09:19.667Z,30.59
2019-03-24T05:11:48.442Z,30.49
2019-03-24T05:14:17.238Z,30.48
2019-03-24T05:16:46.314Z,30.49
2019-03-24T05:19:14.834Z,30.43
2019-03-24T05:21:43.552Z,30.35
2019-03-24T05:24:12.161Z,30.36
2019-03-24T05:26:40.939Z,30.24
2019-03-24T05:29:09.539Z,30.19
2019-03-24T05:31:38.071Z,30.16
2019-03-24T05:34:06.650Z,30.03
2019-03-24T05:36:35.172Z,29.91
2019-03-24T05:39:05.863Z,29.94
2019-03-24T05:41:35.502Z,30.02
2019-03-24T05:44:04.140Z,30.25
2019-03-24T05:46:32.808Z,30.25
2019-03-24T05:49:01.823Z,30.21
2019-03-24T05:51:30.447Z,30.24
2019-03-24T05:53:59.437Z,30.22
2019-03-24T05:56:29.725Z,30.23
2019-03-24T05:58:59.058Z,30.17
2019-03-24T06:01:29.593Z,30.21
2019-03-24T06:03:58.517Z,30.02
2019-03-24T06:06:27.140Z,30.11
2019-03-24T06:08:56.199Z,29.92
2019-03-24T06:11:25.064Z,30.07
2019-03-24T06:13:53.931Z,30.02
2019-03-24T06:16:22.733Z,29.96
2019-03-24T06:18:51.528Z,29.93
2019-03-24T06:21:22.110Z,30.13
2019-03-24T06:23:51.397Z,30.12
2019-03-24T06:26:20.057Z,30.22
2019-03-24T06:28:48.540Z,30.21
2019-03-24T06:31:17.068Z,30.16
2019-03-24T06:33:45.585Z,30.26
2019-03-24T06:36:14.261Z,30.17
2019-03-24T06:38:42.817Z,30.24
2019-03-24T06:41:11.385Z,30.24
2019-03-24T06:43:41.394Z,30.14
2019-03-24T06:46:10.051Z,30.06
2019-03-24T06:48:38.813Z,30.07
2019-03-24T06:51:07.661Z,30.09
2019-03-24T06:53:36.983Z,30.04
2019-03-24T06:56:05.586Z,30.02
2019-03-24T06:58:34.452Z,30.10
2019-03-24T07:01:03.423Z,30.22
2019-03-24T07:03:32.811Z,30.34
2019-03-24T07:06:01.779Z,30.34
2019-03-24T07:08:32.647Z,30.36
2019-03-24T07:11:01.187Z,30.45
2019-03-24T07:13:30.104Z,30.34
2019-03-24T07:15:58.734Z,30.33
2019-03-24T07:18:30.733Z,30.34
2019-03-24T07:20:59.440Z,30.27
2019-03-24T07:23:28.160Z,30.55
2019-03-24T07:25:58.184Z,30.39
2019-03-24T07:28:26.691Z,30.33
2019-03-24T07:30:55.225Z,30.95
2019-03-24T07:33:23.754Z,31.16
2019-03-24T07:35:52.378Z,31.37
2019-03-24T07:38:21.649Z,31.02
2019-03-24T07:40:50.241Z,30.96
2019-03-24T07:43:19.033Z,30.87
2019-03-24T07:45:47.759Z,30.46
2019-03-24T07:48:19.518Z,30.39
2019-03-24T07:50:48.359Z,30.36
2019-03-24T07:53:16.926Z,30.34
2019-03-24T07:55:45.586Z,30.32
2019-03-24T07:58:14.246Z,30.33
2019-03-24T08:00:43.170Z,30.25
2019-03-24T08:03:12.164Z,30.23
2019-03-24T08:05:41.395Z,30.24
2019-03-24T08:08:09.975Z,30.14
2019-03-24T08:10:38.802Z,30.16
2019-03-24T08:13:08.272Z,30.10
2019-03-24T08:15:36.803Z,30.15
2019-03-24T08:18:05.093Z,30.08
2019-03-24T08:20:33.806Z,30.13
2019-03-24T08:23:02.435Z,30.11
2019-03-24T08:25:32.079Z,29.99
2019-03-24T08:28:01.276Z,29.97
2019-03-24T08:30:38.557Z,30.01
2019-03-24T08:33:08.496Z,29.98
2019-03-24T08:35:37.762Z,30.15
2019-03-24T08:38:06.628Z,30.07
2019-03-24T08:40:36.166Z,30.03
2019-03-24T08:43:04.747Z,29.93
2019-03-24T08:45:33.779Z,29.99
2019-03-24T08:48:02.890Z,30.00
2019-03-24T08:50:31.934Z,30.03
2019-03-24T08:53:58.166Z,30.01
2019-03-24T08:56:32.069Z,30.12
2019-03-24T08:59:00.810Z,30.09
2019-03-24T09:01:30.080Z,30.11
2019-03-24T09:03:59.072Z,30.05
2019-03-24T09:06:27.871Z,30.25
2019-03-24T09:08:56.486Z,30.12
2019-03-24T09:11:31.190Z,30.03
2019-03-24T09:13:55.611Z,30.08
2019-03-24T09:16:25.251Z,30.08
2019-03-24T09:18:53.981Z,30.08
2019-03-24T09:21:22.527Z,30.02
2019-03-24T09:23:51.538Z,30.01
2019-03-24T09:26:20.051Z,30.00
2019-03-24T09:28:49.380Z,30.02
2019-03-24T09:31:18.913Z,30.73
2019-03-24T09:33:47.843Z,30.83
2019-03-24T09:36:16.345Z,30.90
2019-03-24T09:38:45.521Z,31.40
2019-03-24T09:41:15.062Z,31.46
2019-03-24T09:43:43.665Z,31.16
2019-03-24T09:46:12.235Z,31.42
2019-03-24T09:48:40.701Z,30.85
2019-03-24T09:51:11.211Z,30.88
2019-03-24T09:53:40.062Z,30.46
2019-03-24T09:56:09.190Z,30.23
2019-03-24T09:58:38.514Z,30.24
2019-03-24T10:01:07.047Z,30.20
2019-03-24T10:03:36.371Z,30.14
2019-03-24T10:06:04.911Z,30.09
2019-03-24T10:08:33.575Z,30.11
2019-03-24T10:11:03.073Z,30.50
2019-03-24T10:13:33.348Z,29.88
2019-03-24T10:16:02.021Z,29.74
2019-03-24T10:18:30.928Z,29.57
2019-03-24T10:20:59.843Z,29.48
2019-03-24T10:23:28.746Z,29.40
2019-03-24T10:25:57.737Z,29.31
2019-03-24T10:28:27.026Z,29.29
2019-03-24T10:30:55.798Z,29.19
2019-03-24T10:33:24.578Z,29.06
2019-03-24T10:35:53.696Z,28.98
2019-03-24T10:38:22.420Z,29.22
2019-03-24T10:40:52.654Z,29.12
2019-03-24T10:43:21.210Z,29.12
2019-03-24T10:45:49.808Z,29.21
2019-03-24T10:48:18.455Z,29.35
2019-03-24T10:50:46.880Z,29.33
2019-03-24T10:53:15.561Z,29.51
2019-03-24T10:55:44.270Z,29.32
2019-03-24T10:58:13.748Z,29.26
2019-03-24T11:00:45.075Z,29.21
2019-03-24T11:03:13.851Z,29.10
2019-03-24T11:05:42.615Z,29.02
2019-03-24T11:08:11.793Z,29.05
2019-03-24T11:10:40.917Z,29.06
2019-03-24T11:13:09.857Z,28.92
2019-03-24T11:15:38.733Z,28.79
2019-03-24T11:18:07.689Z,28.83
2019-03-24T11:20:36.435Z,28.85
2019-03-24T11:23:05.192Z,28.77
2019-03-24T11:25:34.309Z,28.80
2019-03-24T11:28:03.188Z,28.76
2019-03-24T11:30:33.379Z,28.78
2019-03-24T11:33:02.107Z,28.75
2019-03-24T11:35:31.073Z,28.74
2019-03-24T11:38:00.176Z,28.78
2019-03-24T11:40:28.710Z,28.80
2019-03-24T11:42:57.662Z,28.81
2019-03-24T11:45:26.278Z,28.84
2019-03-24T11:47:54.898Z,28.85
2019-03-24T11:50:23.903Z,28.87
2019-03-24T11:52:52.574Z,28.84
2019-03-24T11:55:21.206Z,28.85
2019-03-24T11:57:51.529Z,28.75
2019-03-24T12:00:32.247Z,28.71
2019-03-24T12:03:01.786Z,28.73
2019-03-24T12:05:32.139Z,28.71
2019-03-24T12:08:00.810Z,28.78
2019-03-24T12:10:29.271Z,28.77
2019-03-24T12:12:57.706Z,28.81
2019-03-24T12:15:26.412Z,29.07
2019-03-24T12:17:54.928Z,28.86
2019-03-24T12:20:23.740Z,28.85
2019-03-24T12:22:52.688Z,28.82
2019-03-24T12:25:23.270Z,28.84
2019-03-24T12:27:51.899Z,28.88
2019-03-24T12:30:20.820Z,29.27
2019-03-24T12:32:49.633Z,29.20
2019-03-24T12:35:18.549Z,29.34
2019-03-24T12:37:47.475Z,29.49
2019-03-24T12:40:16.202Z,29.58
2019-03-24T12:42:44.787Z,29.58
2019-03-24T12:45:13.501Z,29.36
2019-03-24T12:47:42.568Z,29.27
2019-03-24T12:50:11.490Z,29.24
2019-03-24T12:52:40.135Z,29.06
2019-03-24T12:55:08.974Z,28.92
2019-03-24T12:57:37.773Z,28.87
2019-03-24T13:00:08.136Z,28.87
2019-03-24T13:02:37.540Z,28.82
2019-03-24T13:05:07.380Z,28.77
2019-03-24T13:07:42.082Z,28.83
2019-03-24T13:10:11.210Z,28.79
2019-03-24T13:12:39.740Z,28.82
2019-03-24T13:15:08.367Z,28.77
2019-03-24T13:17:37.125Z,28.82
2019-03-24T13:20:05.972Z,28.77
2019-03-24T13:22:34.970Z,28.77
2019-03-24T13:25:04.904Z,28.78
2019-03-24T13:27:33.549Z,28.35
2019-03-24T13:30:02.413Z,28.30
2019-03-24T13:32:31.256Z,28.70
2019-03-24T13:35:02.571Z,28.70
2019-03-24T13:37:31.545Z,28.81
2019-03-24T13:40:00.356Z,28.72
2019-03-24T13:42:29.167Z,28.77
2019-03-24T13:44:58.526Z,28.80
2019-03-24T13:47:27.607Z,28.83
2019-03-24T13:49:57.582Z,28.77
2019-03-24T13:52:26.634Z,28.79
2019-03-24T13:54:55.611Z,28.85
2019-03-24T13:57:24.199Z,28.83
2019-03-24T13:59:53.099Z,28.89
2019-03-24T14:02:21.688Z,28.82
2019-03-24T14:04:50.182Z,28.82
2019-03-24T14:07:19.056Z,28.85
2019-03-24T14:09:47.599Z,28.85
2019-03-24T14:12:16.096Z,28.88
2019-03-24T14:14:44.625Z,28.79
2019-03-24T14:17:13.319Z,28.86
2019-03-24T14:19:42.572Z,28.86
2019-03-24T14:22:11.200Z,28.76
2019-03-24T14:24:40.154Z,28.83
2019-03-24T14:27:09.178Z,28.75
2019-03-24T14:29:38.182Z,28.79
2019-03-24T14:32:07.153Z,28.79
2019-03-24T14:34:35.637Z,28.81
2019-03-24T14:37:04.153Z,28.77
2019-03-24T14:39:33.326Z,28.76
2019-03-24T14:42:02.267Z,28.82
2019-03-24T14:44:30.835Z,28.60
2019-03-24T14:46:59.815Z,28.33
2019-03-24T14:49:28.356Z,28.04
2019-03-24T14:51:57.050Z,28.13
2019-03-24T14:54:26.023Z,28.12
2019-03-24T14:56:55.623Z,28.08
2019-03-24T14:59:24.319Z,28.15
2019-03-24T15:01:54.055Z,28.41
2019-03-24T15:04:23.032Z,28.69
2019-03-24T15:06:51.567Z,28.81
2019-03-24T15:09:20.452Z,28.85
2019-03-24T15:11:49.308Z,28.81
2019-03-24T15:14:19.724Z,28.85
2019-03-24T15:16:48.273Z,28.83
2019-03-24T15:19:17.095Z,28.82
2019-03-24T15:21:45.628Z,28.94
2019-03-24T15:24:15.583Z,28.86
2019-03-24T15:26:44.312Z,28.85
2019-03-24T15:29:12.941Z,29.04
2019-03-24T15:31:42.320Z,29.56
2019-03-24T15:34:11.617Z,29.35
2019-03-24T15:36:40.098Z,29.37
2019-03-24T15:39:09.518Z,29.33
2019-03-24T15:41:37.799Z,29.40
2019-03-24T15:44:06.370Z,29.41
2019-03-24T15:46:35.246Z,29.55
2019-03-24T15:49:04.041Z,29.50
2019-03-24T15:51:32.961Z,29.54
2019-03-24T15:54:01.624Z,29.55
2019-03-24T15:56:30.377Z,29.61
2019-03-24T15:58:58.895Z,29.63
2019-03-24T16:01:27.577Z,29.69
2019-03-24T16:03:56.446Z,29.71
2019-03-24T16:06:26.041Z,30.12
2019-03-24T16:08:55.688Z,31.01
2019-03-24T16:11:24.226Z,31.31
2019-03-24T16:13:54.360Z,31.40
2019-03-24T16:16:23.641Z,31.05
2019-03-24T16:18:52.770Z,31.30
2019-03-24T16:21:27.701Z,31.09
2019-03-24T16:23:51.776Z,30.62
2019-03-24T16:26:21.148Z,30.35
2019-03-24T16:28:50.200Z,30.33
2019-03-24T16:31:18.845Z,30.36
2019-03-24T16:33:47.389Z,30.37
2019-03-24T16:36:15.942Z,30.36
2019-03-24T16:38:49.095Z,30.43
2019-03-24T16:41:15.545Z,30.46
2019-03-24T16:43:43.975Z,30.48
2019-03-24T16:46:12.536Z,30.52
2019-03-24T16:48:41.014Z,30.58
2019-03-24T16:51:09.680Z,30.58
2019-03-24T16:53:39.229Z,30.51
2019-03-24T16:56:07.861Z,30.64
2019-03-24T16:58:36.728Z,30.66
2019-03-24T17:01:05.539Z,30.68
2019-03-24T17:03:35.020Z,30.68
2019-03-24T17:06:03.651Z,30.66
2019-03-24T17:08:33.032Z,30.73
2019-03-24T17:11:03.582Z,30.74
2019-03-24T17:13:33.453Z,30.73
2019-03-24T17:16:02.334Z,30.77
2019-03-24T17:18:31.386Z,30.74
2019-03-24T17:21:00.523Z,30.81
2019-03-24T17:23:29.893Z,30.71
2019-03-24T17:25:58.605Z,30.75
2019-03-24T17:28:28.243Z,30.79
2019-03-24T17:30:58.195Z,30.78
2019-03-24T17:33:27.322Z,30.92
2019-03-24T17:35:58.062Z,30.95
2019-03-24T17:38:26.637Z,30.96
2019-03-24T17:40:55.672Z,30.99
2019-03-24T17:43:24.242Z,31.00
2019-03-24T17:45:53.255Z,31.00
2019-03-24T17:48:21.969Z,31.08
2019-03-24T17:50:50.870Z,31.07
2019-03-24T17:53:19.851Z,31.09
2019-03-24T17:55:48.529Z,31.09
2019-03-24T17:58:17.070Z,31.11
2019-03-24T18:00:47.830Z,31.05
2019-03-24T18:03:16.565Z,31.13
2019-03-24T18:05:45.368Z,31.12
2019-03-24T18:08:14.006Z,31.51
2019-03-24T18:10:45.716Z,31.69
2019-03-24T18:13:14.661Z,31.41
2019-03-24T18:15:43.601Z,31.29
2019-03-24T18:18:12.361Z,31.21
2019-03-24T18:20:41.033Z,31.21
2019-03-24T18:23:09.750Z,31.26
2019-03-24T18:25:40.753Z,31.17
2019-03-24T18:28:09.408Z,31.09
2019-03-24T18:30:38.549Z,31.18
2019-03-24T18:33:07.734Z,31.26
2019-03-24T18:35:36.550Z,31.22
2019-03-24T18:38:05.492Z,31.30
2019-03-24T18:40:34.134Z,31.31
2019-03-24T18:43:03.190Z,31.53
2019-03-24T18:45:31.850Z,31.33
2019-03-24T18:48:00.581Z,31.37
2019-03-24T18:50:29.640Z,31.33
2019-03-24T18:52:59.055Z,31.40
2019-03-24T18:55:28.175Z,31.39
2019-03-24T18:57:57.538Z,31.38
2019-03-24T19:00:26.663Z,31.36
2019-03-24T19:02:55.678Z,31.41
2019-03-24T19:05:26.127Z,31.38
2019-03-24T19:07:55.437Z,31.36
2019-03-24T19:10:24.587Z,31.31
2019-03-24T19:12:53.486Z,31.65
2019-03-24T19:15:22.409Z,31.55
2019-03-24T19:17:51.997Z,31.28
2019-03-24T19:20:21.179Z,31.34
2019-03-24T19:22:51.552Z,31.17
2019-03-24T19:25:20.277Z,31.18
2019-03-24T19:27:49.218Z,31.24
2019-03-24T19:30:19.976Z,31.25
2019-03-24T19:32:48.907Z,31.27
2019-03-24T19:35:19.526Z,31.31
2019-03-24T19:37:48.492Z,31.30
2019-03-24T19:40:27.116Z,31.35
2019-03-24T19:42:55.910Z,31.41
2019-03-24T19:45:25.028Z,31.31
2019-03-24T19:47:55.042Z,31.27
2019-03-24T19:50:24.121Z,31.38
2019-03-24T19:52:54.654Z,31.25
2019-03-24T19:55:25.169Z,31.16
2019-03-24T19:57:53.742Z,31.11
2019-03-24T20:00:22.636Z,31.27
2019-03-24T20:02:51.667Z,31.30
2019-03-24T20:05:21.108Z,31.64
2019-03-24T20:07:50.230Z,31.44
2019-03-24T20:10:18.685Z,31.42
2019-03-24T20:12:47.489Z,31.35
2019-03-24T20:15:16.648Z,31.34
2019-03-24T20:17:45.616Z,31.33
2019-03-24T20:20:14.561Z,31.32
2019-03-24T20:22:43.544Z,31.21
2019-03-24T20:25:12.305Z,31.26
2019-03-24T20:27:41.361Z,31.03
2019-03-24T20:30:10.676Z,31.24
2019-03-24T20:32:39.931Z,31.32
2019-03-24T20:35:09.846Z,31.05
2019-03-24T20:37:38.830Z,31.18
2019-03-24T20:40:08.158Z,31.29
2019-03-24T20:42:37.187Z,31.29
2019-03-24T20:45:06.180Z,31.31
2019-03-24T20:47:36.880Z,31.29
2019-03-24T20:50:05.992Z,31.26
2019-03-24T20:52:34.784Z,31.25
2019-03-24T20:55:04.235Z,31.25
2019-03-24T20:57:36.172Z,31.31
2019-03-24T21:00:05.417Z,31.19
2019-03-24T21:02:34.397Z,31.16
2019-03-24T21:05:04.155Z,31.19
2019-03-24T21:07:33.546Z,31.14
2019-03-24T21:10:02.396Z,31.06
2019-03-24T21:12:31.459Z,31.21
2019-03-24T21:15:00.584Z,31.35
2019-03-24T21:17:29.910Z,31.36
2019-03-24T21:19:58.599Z,31.35
2019-03-24T21:22:27.370Z,31.37
2019-03-24T21:24:56.864Z,31.82
2019-03-24T21:27:25.602Z,32.23
2019-03-24T21:29:54.279Z,32.94
2019-03-24T21:32:23.230Z,33.31
2019-03-24T21:34:52.739Z,33.17
2019-03-24T21:37:21.618Z,32.60
2019-03-24T21:39:50.486Z,32.56
2019-03-24T21:42:19.457Z,32.53
2019-03-24T21:44:49.355Z,32.21
2019-03-24T21:47:18.062Z,32.19
2019-03-24T21:49:46.979Z,32.19
2019-03-24T21:52:16.370Z,32.08
2019-03-24T21:54:45.772Z,32.21
2019-03-24T21:57:14.352Z,32.42
2019-03-24T21:59:43.254Z,32.31
2019-03-24T22:02:12.447Z,32.04
2019-03-24T22:04:41.712Z,32.11
2019-03-24T22:07:10.465Z,32.01
2019-03-24T22:09:39.214Z,32.04
2019-03-24T22:12:08.248Z,31.98
2019-03-24T22:14:37.442Z,31.98
2019-03-24T22:17:06.344Z,31.84
2019-03-24T22:19:35.581Z,31.72
2019-03-24T22:22:04.199Z,31.62
2019-03-24T22:24:33.348Z,31.82
2019-03-24T22:27:02.122Z,31.89
2019-03-24T22:29:31.406Z,31.72
2019-03-24T22:32:00.266Z,31.84
2019-03-24T22:34:29.078Z,31.14
2019-03-24T22:36:57.662Z,31.25
2019-03-24T22:39:27.986Z,31.27
2019-03-24T22:41:56.920Z,30.99
2019-03-24T22:44:25.879Z,30.76
2019-03-24T22:46:56.348Z,30.77
2019-03-24T22:49:25.276Z,30.84
2019-03-24T22:51:58.696Z,30.92
2019-03-24T22:54:25.115Z,30.92
2019-03-24T22:56:54.072Z,30.91
2019-03-24T22:59:22.804Z,31.10
2019-03-24T23:01:51.408Z,31.64
2019-03-24T23:04:20.473Z,31.84
2019-03-24T23:06:49.661Z,31.82
2019-03-24T23:09:18.388Z,31.38
2019-03-24T23:11:46.668Z,31.21
2019-03-24T23:14:15.921Z,31.16
2019-03-24T23:16:44.912Z,31.19
2019-03-24T23:19:14.249Z,31.18
2019-03-24T23:21:42.904Z,31.18
2019-03-24T23:24:15.649Z,31.16
2019-03-24T23:26:42.614Z,31.17
2019-03-24T23:29:11.198Z,31.22
2019-03-24T23:31:39.487Z,31.12
2019-03-24T23:34:08.186Z,30.98
2019-03-24T23:36:36.634Z,30.90
2019-03-24T23:39:06.767Z,31.16
2019-03-24T23:41:35.403Z,31.21
2019-03-24T23:44:04.244Z,31.06
2019-03-24T23:46:33.485Z,31.02
2019-03-24T23:49:03.627Z,31.00
2019-03-24T23:51:32.404Z,31.09
2019-03-24T23:54:01.351Z,31.10
2019-03-24T23:56:29.966Z,31.06
2019-03-24T23:58:58.856Z,31.15
